Time;durP1;ratioP1;P1;durP2;ratioP2;P2;SDS_P1;SDS_P2;PMS_P1;PMS_P2;Temp;Humidity;BMP_temperature;BMP_pressure;BME280_temperature;BME280_humidity;BME280_pressure;Samples;Min_cycle;Max_cycle;Signal;HPM_P1;HPM_P2
2022/12/24 00:01:34;;;;;;;36.67;8.05;;;;;;;9.49;100.00;100628.72;5327810;27;20034;-85
2022/12/24 00:04:06;;;;;;;35.15;7.85;;;;;;;9.49;100.00;100614.56;5333372;27;20034;-85
2022/12/24 00:06:37;;;;;;;41.13;8.43;;;;;;;9.46;100.00;100623.66;5334092;27;20400;-85
2022/12/24 00:09:09;;;;;;;35.95;8.93;;;;;;;9.49;100.00;100627.88;5336504;27;21527;-85
2022/12/24 00:11:40;;;;;;;42.38;9.38;;;;;;;9.36;100.00;100625.47;5326550;27;20134;-85
2022/12/24 00:14:11;;;;;;;34.97;8.23;;;;;;;9.38;100.00;100636.81;5336862;27;20036;-86
2022/12/24 00:16:42;;;;;;;30.48;7.43;;;;;;;9.47;100.00;100625.34;5336576;27;20468;-85
2022/12/24 00:19:14;;;;;;;38.03;8.48;;;;;;;9.49;100.00;100644.69;5329780;27;20035;-87
2022/12/24 00:21:45;;;;;;;33.88;7.18;;;;;;;9.42;100.00;100638.25;5336956;27;20551;-87
2022/12/24 00:24:16;;;;;;;36.67;9.20;;;;;;;9.41;100.00;100637.41;5324702;27;20058;-86
2022/12/24 00:26:48;;;;;;;40.70;8.88;;;;;;;9.42;100.00;100625.75;5322860;27;20026;-86
2022/12/24 00:29:19;;;;;;;42.35;8.85;;;;;;;9.49;100.00;100636.69;5337744;27;20418;-87
2022/12/24 00:31:50;;;;;;;34.90;8.82;;;;;;;9.58;100.00;100645.66;5330878;27;20073;-87
2022/12/24 00:34:24;;;;;;;39.20;8.15;;;;;;;9.55;100.00;100645.94;5319428;28;20017;-86
2022/12/24 00:36:56;;;;;;;37.60;8.52;;;;;;;9.58;100.00;100643.84;5322503;27;20067;-87
2022/12/24 00:39:27;;;;;;;43.90;8.50;;;;;;;9.63;100.00;100651.41;5341173;27;20028;-87
2022/12/24 00:41:58;;;;;;;51.92;7.80;;;;;;;9.59;100.00;100663.31;5326068;27;20127;-87
2022/12/24 00:44:32;;;;;;;34.10;8.32;;;;;;;9.47;100.00;100657.31;5322929;28;20035;-87
2022/12/24 00:47:04;;;;;;;35.15;8.10;;;;;;;9.44;100.00;100666.41;5322501;28;20119;-87
2022/12/24 00:49:35;;;;;;;37.67;8.77;;;;;;;9.48;100.00;100688.25;5326683;27;20547;-87
2022/12/24 00:52:06;;;;;;;37.60;8.35;;;;;;;9.48;100.00;100679.44;5337114;27;20038;-87
2022/12/24 00:54:38;;;;;;;32.38;8.05;;;;;;;9.48;100.00;100687.41;5335848;27;20024;-87
2022/12/24 00:57:12;;;;;;;30.75;7.45;;;;;;;9.43;100.00;100685.16;5330525;27;20059;-87
2022/12/24 00:59:43;;;;;;;32.47;7.35;;;;;;;9.48;100.00;100692.75;5321746;27;20029;-87
2022/12/24 01:02:15;;;;;;;31.42;7.65;;;;;;;9.50;100.00;100688.13;5322594;27;20020;-87
2022/12/24 01:07:41;;;;;;;30.73;7.75;;;;;;;9.45;100.00;100704.53;5333830;27;20059;-87
2022/12/24 01:10:17;;;;;;;36.42;7.63;;;;;;;9.42;100.00;100702.13;5333063;27;20027;-87
2022/12/24 01:12:48;;;;;;;36.97;7.97;;;;;;;9.37;100.00;100691.91;5349016;27;20038;-84
2022/12/24 01:15:20;;;;;;;34.67;8.88;;;;;;;9.33;100.00;100700.31;5331650;27;20032;-87
2022/12/24 01:17:51;;;;;;;34.92;8.20;;;;;;;9.22;100.00;100695.94;5333968;27;20028;-87
2022/12/24 01:20:23;;;;;;;34.97;9.00;;;;;;;9.20;100.00;100704.06;5337814;27;20131;-86
2022/12/24 01:22:54;;;;;;;39.28;7.95;;;;;;;9.03;100.00;100712.72;5336843;27;20434;-86
2022/12/24 01:25:25;;;;;;;29.35;7.57;;;;;;;9.13;100.00;100715.38;5340388;27;20032;-87
2022/12/24 01:27:57;;;;;;;36.67;8.43;;;;;;;9.14;100.00;100725.06;5331454;27;20117;-86
2022/12/24 01:30:28;;;;;;;34.65;8.90;;;;;;;9.14;100.00;100727.72;5333955;27;20071;-86
2022/12/24 01:33:00;;;;;;;38.55;8.95;;;;;;;9.09;100.00;100722.78;5336501;27;20034;-86
2022/12/24 01:35:31;;;;;;;38.70;9.45;;;;;;;9.03;100.00;100723.34;5336411;27;20040;-87
2022/12/24 01:38:02;;;;;;;32.20;8.45;;;;;;;8.97;100.00;100734.53;5332743;27;20119;-83
2022/12/24 01:43:27;;;;;;;38.15;8.90;;;;;;;8.98;100.00;100739.72;5334606;27;20023;-87
2022/12/24 01:46:02;;;;;;;33.42;7.60;;;;;;;9.04;100.00;100747.13;5340733;27;20027;-87
2022/12/24 01:48:39;;;;;;;42.35;9.80;;;;;;;9.03;100.00;100736.66;5332932;27;20085;-86
2022/12/24 01:51:36;;;;;;;36.53;8.52;;;;;;;9.02;100.00;100749.09;5335801;27;20506;-87
2022/12/24 01:54:17;;;;;;;41.88;9.25;;;;;;;9.06;100.00;100741.69;5331913;27;20031;-87
2022/12/24 01:56:53;;;;;;;39.33;7.82;;;;;;;9.12;100.00;100749.13;5323285;27;20024;-87
2022/12/24 01:59:24;;;;;;;;;;;;;;;9.20;100.00;100737.81;5333993;27;20032;-86
2022/12/24 02:01:56;;;;;;;35.95;8.48;;;;;;;9.12;100.00;100745.66;5331026;27;19919;-87
2022/12/24 02:04:48;;;;;;;31.05;7.72;;;;;;;9.12;100.00;100772.25;5338837;27;20027;-86
2022/12/24 02:07:20;;;;;;;46.13;10.27;;;;;;;9.04;100.00;100757.78;5333494;27;20040;-87
2022/12/24 02:09:58;;;;;;;34.95;7.68;;;;;;;9.10;100.00;100764.41;5331520;27;20031;-87
2022/12/24 02:12:34;;;;;;;41.55;8.52;;;;;;;9.14;100.00;100765.81;5330116;27;20051;-87
2022/12/24 02:15:09;;;;;;;41.75;9.35;;;;;;;9.21;100.00;100772.28;5326825;27;20020;-86
2022/12/24 02:17:53;;;;;;;39.20;9.25;;;;;;;9.25;100.00;100775.50;5328339;27;20028;-86
2022/12/24 02:20:33;;;;;;;43.50;9.48;;;;;;;9.21;100.00;100776.75;5336144;27;20157;-87
2022/12/24 02:23:33;;;;;;;37.88;9.25;;;;;;;9.33;100.00;100775.69;5341573;27;20036;-86
2022/12/24 02:26:29;;;;;;;36.42;8.05;;;;;;;9.33;100.00;100782.81;5334351;27;20089;-86
2022/12/24 02:29:19;;;;;;;44.15;9.25;;;;;;;9.35;100.00;100776.38;5325052;27;20134;-86
2022/12/24 02:32:12;;;;;;;42.53;8.40;;;;;;;9.40;100.00;100782.13;5339764;27;20039;-87
2022/12/24 02:35:09;;;;;;;37.30;8.85;;;;;;;9.39;100.00;100791.09;5329749;27;20487;-86
2022/12/24 02:37:46;;;;;;;39.33;8.27;;;;;;;9.44;100.00;100790.69;5332323;27;20020;-87
2022/12/24 02:40:28;;;;;;;40.72;9.00;;;;;;;9.51;100.00;100793.66;5327273;27;20031;-87
2022/12/24 02:43:06;;;;;;;40.70;7.97;;;;;;;9.50;100.00;100798.13;5333956;27;20103;-86
2022/12/24 02:45:39;;;;;;;35.20;6.82;;;;;;;9.53;100.00;100789.03;5336170;27;20023;-86
2022/12/24 02:48:13;;;;;;;46.75;8.02;;;;;;;9.46;100.00;100786.06;5338864;27;20035;-86
2022/12/24 02:50:56;;;;;;;40.40;7.00;;;;;;;9.47;100.00;100793.09;5336225;27;20032;-87
2022/12/24 02:53:28;;;;;;;34.90;6.20;;;;;;;9.39;100.00;100793.75;5329792;27;20020;-87
2022/12/24 02:56:05;;;;;;;34.95;7.53;;;;;;;9.43;100.00;100799.66;5325998;27;20035;-86
2022/12/24 02:59:04;;;;;;;42.95;7.80;;;;;;;9.46;100.00;100800.22;5334397;27;20071;-86
2022/12/24 03:02:10;;;;;;;47.20;8.32;;;;;;;9.51;100.00;100802.47;5332905;27;20054;-87
2022/12/24 03:04:50;;;;;;;39.85;9.35;;;;;;;9.49;100.00;100796.44;5323631;27;20040;-87
2022/12/24 03:07:31;;;;;;;44.53;8.65;;;;;;;9.48;100.00;100796.59;5335863;27;20079;-86
2022/12/24 03:10:08;;;;;;;36.53;7.10;;;;;;;9.50;100.00;100802.59;5333839;27;20035;-85
2022/12/24 03:12:56;;;;;;;40.97;7.03;;;;;;;9.51;100.00;100812.28;5334531;27;20039;-85
2022/12/24 03:15:30;;;;;;;29.13;7.38;;;;;;;9.58;100.00;100810.75;5333449;27;20023;-85
2022/12/24 03:18:05;;;;;;;38.75;8.07;;;;;;;9.54;100.00;100804.88;5334566;27;20038;-85
2022/12/24 03:20:40;;;;;;;31.60;6.65;;;;;;;9.63;100.00;100816.53;5330019;27;20097;-85
2022/12/24 03:23:16;;;;;;;39.25;7.82;;;;;;;9.58;100.00;100800.13;5332300;27;20020;-85
2022/12/24 03:25:48;;;;;;;37.42;8.85;;;;;;;9.69;100.00;100815.13;5331718;27;20180;-85
2022/12/24 03:28:25;;;;;;;35.28;6.93;;;;;;;9.75;100.00;100815.44;5330669;27;20051;-86
2022/12/24 03:31:01;;;;;;;34.63;6.60;;;;;;;9.80;100.00;100809.66;5334617;27;20038;-86
2022/12/24 03:33:33;;;;;;;35.10;8.13;;;;;;;9.76;100.00;100816.25;5331433;27;20849;-86
2022/12/24 03:36:06;;;;;;;36.10;7.60;;;;;;;9.79;100.00;100816.00;5326930;27;20031;-87
2022/12/24 03:38:37;;;;;;;38.00;8.88;;;;;;;9.89;100.00;100823.97;5333684;27;20128;-85
2022/12/24 03:41:09;;;;;;;35.70;7.70;;;;;;;9.87;100.00;100816.16;5336120;27;20104;-85
2022/12/24 03:43:40;;;;;;;31.85;7.35;;;;;;;9.88;100.00;100831.13;5331659;27;20028;-86
2022/12/24 03:46:11;;;;;;;32.03;7.68;;;;;;;9.91;100.00;100838.88;5333020;27;20032;-86
2022/12/24 03:48:43;;;;;;;35.45;8.45;;;;;;;9.89;100.00;100830.19;5334967;27;20112;-85
2022/12/24 03:51:17;;;;;;;34.20;6.60;;;;;;;9.87;100.00;100826.81;5334496;27;20055;-82
2022/12/24 03:53:51;;;;;;;36.20;7.55;;;;;;;9.91;100.00;100820.22;5342496;27;20115;-85
2022/12/24 03:56:23;;;;;;;33.42;8.48;;;;;;;9.90;100.00;100825.69;5330084;27;20380;-86
2022/12/24 03:58:54;;;;;;;31.80;7.20;;;;;;;9.85;100.00;100831.41;5332474;27;20031;-85
2022/12/24 04:01:26;;;;;;;36.22;8.70;;;;;;;9.84;100.00;100833.25;5334103;27;20028;-85
2022/12/24 04:03:57;;;;;;;28.63;7.63;;;;;;;9.85;100.00;100839.41;5330722;27;20054;-85
2022/12/24 04:06:31;;;;;;;29.45;7.53;;;;;;;9.79;100.00;100847.97;5323629;27;20040;-86
2022/12/24 04:09:03;;;;;;;31.02;7.65;;;;;;;9.79;100.00;100843.47;5339992;27;20027;-85
2022/12/24 04:11:39;;;;;;;27.60;7.18;;;;;;;9.76;100.00;100846.41;5331943;27;20503;-86
2022/12/24 04:14:10;;;;;;;30.38;7.57;;;;;;;9.76;100.00;100841.06;5333493;27;20151;-85
2022/12/24 04:16:42;;;;;;;34.35;7.28;;;;;;;9.72;100.00;100839.66;5325389;27;20020;-86
2022/12/24 04:19:13;;;;;;;23.30;6.78;;;;;;;9.70;100.00;100838.97;5334176;27;20068;-85
2022/12/24 04:21:44;;;;;;;32.90;6.75;;;;;;;9.78;100.00;100844.47;5330886;27;20016;-86
2022/12/24 04:24:16;;;;;;;29.40;6.32;;;;;;;9.76;100.00;100846.41;5334457;27;20020;-85
2022/12/24 04:26:50;;;;;;;36.13;7.30;;;;;;;9.79;100.00;100864.78;5334952;27;20023;-85
2022/12/24 04:29:22;;;;;;;29.02;7.63;;;;;;;9.80;100.00;100850.50;5327179;27;20126;-86
2022/12/24 04:31:53;;;;;;;29.45;6.82;;;;;;;9.78;100.00;100859.59;5332176;27;20470;-85
2022/12/24 04:34:25;;;;;;;32.25;8.73;;;;;;;9.81;100.00;100867.31;5326459;27;20376;-86
2022/12/24 04:36:57;;;;;;;23.30;6.50;;;;;;;9.82;100.00;100863.69;5331613;27;20020;-85
2022/12/24 04:39:29;;;;;;;24.73;7.88;;;;;;;9.76;100.00;100858.88;5330593;27;20393;-86
2022/12/24 04:42:03;;;;;;;33.05;7.38;;;;;;;9.72;100.00;100866.31;5324969;27;20051;-85
2022/12/24 04:44:34;;;;;;;34.47;8.25;;;;;;;9.71;100.00;100866.44;5330405;27;20039;-85
2022/12/24 04:47:06;;;;;;;36.03;8.45;;;;;;;9.64;100.00;100860.81;5334244;27;20016;-86
2022/12/24 04:49:42;;;;;;;30.98;8.25;;;;;;;9.57;100.00;100867.66;5330981;27;20103;-86
2022/12/24 04:52:14;;;;;;;37.63;7.75;;;;;;;9.54;100.00;100857.28;5336565;27;20246;-86
2022/12/24 04:54:45;;;;;;;38.33;8.30;;;;;;;9.52;100.00;100867.22;5332352;27;20132;-86
2022/12/24 04:57:16;;;;;;;35.90;7.57;;;;;;;9.51;100.00;100874.38;5338897;27;20107;-86
2022/12/24 04:59:48;;;;;;;33.58;7.70;;;;;;;9.53;100.00;100879.56;5340345;27;20020;-86
2022/12/24 05:02:19;;;;;;;32.90;7.97;;;;;;;9.59;100.00;100879.88;5338542;27;20430;-85
2022/12/24 05:04:50;;;;;;;32.33;6.53;;;;;;;9.61;100.00;100882.41;5336746;27;20101;-86
2022/12/24 05:07:22;;;;;;;37.95;7.93;;;;;;;9.56;100.00;100858.84;5334293;27;20078;-86
2022/12/24 05:09:53;;;;;;;35.03;7.65;;;;;;;9.65;100.00;100884.63;5330271;27;20051;-86
2022/12/24 05:12:24;;;;;;;34.47;7.47;;;;;;;9.59;100.00;100885.19;5338673;27;20032;-86
2022/12/24 05:14:56;;;;;;;31.13;6.88;;;;;;;9.71;100.00;100893.94;5339887;27;20076;-86
2022/12/24 05:17:27;;;;;;;34.95;6.85;;;;;;;9.65;100.00;100889.97;5340170;27;20430;-86
2022/12/24 05:19:58;;;;;;;32.92;7.22;;;;;;;9.69;100.00;100887.03;5329678;27;20684;-86
2022/12/24 05:28:14;;;;;;;31.65;7.47;;;;;;;9.60;100.00;100872.72;5327968;27;20040;-86
2022/12/24 05:30:45;;;;;;;32.80;6.72;;;;;;;9.59;100.00;100879.88;5332088;27;20028;-86
2022/12/24 05:33:16;;;;;;;33.97;7.18;;;;;;;9.57;100.00;100887.16;5331738;27;20091;-86
2022/12/24 05:35:50;;;;;;;30.20;6.65;;;;;;;9.46;100.00;100871.25;5330876;27;20020;-87
2022/12/24 05:38:21;;;;;;;32.03;6.97;;;;;;;9.48;100.00;100884.44;5344794;27;20020;-86
2022/12/24 05:40:53;;;;;;;36.25;6.85;;;;;;;9.47;100.00;100886.28;5339648;27;20452;-86
2022/12/24 05:43:27;;;;;;;34.45;7.82;;;;;;;9.52;100.00;100888.50;5335658;27;20097;-85
2022/12/24 05:46:00;;;;;;;38.45;6.85;;;;;;;9.42;100.00;100893.81;5337916;27;20032;-86
2022/12/24 05:48:32;;;;;;;30.35;7.65;;;;;;;9.32;100.00;100903.56;5334926;27;20460;-86
2022/12/24 05:51:06;;;;;;;34.88;7.30;;;;;;;9.36;100.00;100918.28;5336868;27;20381;-86
2022/12/24 05:53:38;;;;;;;34.28;6.63;;;;;;;9.34;100.00;100912.25;5340641;27;20065;-86
2022/12/24 05:56:13;;;;;;;34.35;7.65;;;;;;;9.45;100.00;100923.69;5339834;27;20055;-86
2022/12/24 05:58:45;;;;;;;37.80;7.35;;;;;;;9.41;100.00;100918.75;5330625;27;21171;-86
2022/12/24 06:01:16;;;;;;;30.13;8.00;;;;;;;9.35;100.00;100922.78;5342650;27;20028;-85
2022/12/24 06:03:48;;;;;;;35.03;7.63;;;;;;;9.38;100.00;100927.00;5336162;27;20577;-86
2022/12/24 06:06:22;;;;;;;37.20;7.95;;;;;;;9.37;100.00;100936.81;5328549;27;20425;-86
2022/12/24 06:08:55;;;;;;;39.67;8.93;;;;;;;9.42;100.00;100931.94;5331076;27;20063;-86
2022/12/24 06:11:27;;;;;;;30.90;8.75;;;;;;;9.44;100.00;100924.66;5323472;27;20040;-86
2022/12/24 06:13:58;;;;;;;37.38;7.90;;;;;;;9.37;100.00;100910.19;5330485;27;20177;-85
2022/12/24 06:16:29;;;;;;;32.25;7.30;;;;;;;9.32;100.00;100908.91;5337956;27;20030;-86
2022/12/24 06:19:01;;;;;;;31.52;7.25;;;;;;;9.37;100.00;100917.34;5340013;27;20035;-85
2022/12/24 06:21:32;;;;;;;32.05;8.27;;;;;;;9.28;100.00;100919.81;5336217;27;20414;-86
2022/12/24 06:24:04;;;;;;;35.78;7.45;;;;;;;9.28;100.00;100927.78;5326829;27;20064;-85
2022/12/24 06:26:35;;;;;;;35.38;7.43;;;;;;;9.20;100.00;100932.94;5334467;27;20034;-85
2022/12/24 06:29:06;;;;;;;32.53;8.30;;;;;;;9.15;100.00;100929.84;5339766;27;20992;-83
2022/12/24 06:31:38;;;;;;;33.47;8.43;;;;;;;9.12;100.00;100932.75;5345734;27;20023;-83
2022/12/24 06:34:09;;;;;;;29.55;7.63;;;;;;;9.11;100.00;100933.72;5345730;27;20043;-85
2022/12/24 06:36:40;;;;;;;31.00;7.18;;;;;;;9.04;100.00;100943.19;5348112;27;20445;-85
2022/12/24 06:39:12;;;;;;;33.63;9.02;;;;;;;9.05;100.00;100956.38;5335310;27;20024;-86
2022/12/24 06:41:43;;;;;;;35.33;8.82;;;;;;;8.87;100.00;100936.63;5332725;27;20027;-86
2022/12/24 06:44:14;;;;;;;36.15;8.38;;;;;;;8.97;100.00;100956.16;5336716;27;20028;-85
2022/12/24 06:46:46;;;;;;;34.13;8.23;;;;;;;8.94;100.00;100953.78;5338054;27;20126;-86
2022/12/24 06:49:17;;;;;;;39.13;9.52;;;;;;;8.88;100.00;100944.47;5342409;27;20035;-85
2022/12/24 06:51:48;;;;;;;38.72;8.93;;;;;;;8.99;100.00;100961.34;5337217;27;20020;-86
2022/12/24 06:54:20;;;;;;;38.92;8.82;;;;;;;9.07;100.00;100962.41;5329638;27;20038;-85
2022/12/24 06:56:56;;;;;;;38.25;8.73;;;;;;;9.10;100.00;100961.31;5337641;27;25140;-86
2022/12/24 06:59:27;;;;;;;;;;;;;;;9.28;100.00;100970.38;5356838;27;20031;-86
2022/12/24 07:01:59;;;;;;;35.95;8.57;;;;;;;9.20;100.00;100964.03;5339927;27;19916;-86
2022/12/24 07:04:30;;;;;;;37.10;8.05;;;;;;;9.05;100.00;100968.84;5341077;27;20063;-86
2022/12/24 07:07:07;;;;;;;35.05;7.97;;;;;;;9.06;100.00;100971.38;5333221;27;20044;-86
2022/12/24 07:09:38;;;;;;;36.88;8.20;;;;;;;8.95;100.00;100966.09;5339637;27;20199;-85
2022/12/24 07:12:10;;;;;;;41.05;8.90;;;;;;;8.93;100.00;100967.22;5327884;27;20061;-86
2022/12/24 07:14:41;;;;;;;34.22;8.40;;;;;;;8.91;100.00;100982.47;5330771;27;20016;-86
2022/12/24 07:17:12;;;;;;;38.83;9.68;;;;;;;8.88;100.00;100973.75;5335665;27;20020;-86
2022/12/24 07:19:43;;;;;;;44.55;8.65;;;;;;;8.91;100.00;100975.31;5331922;28;20031;-86
2022/12/24 07:22:15;;;;;;;30.10;7.72;;;;;;;8.89;100.00;100972.78;5329150;28;20494;-86
2022/12/24 07:24:49;;;;;;;41.00;7.78;;;;;;;8.85;100.00;100979.34;5329746;27;20024;-86
2022/12/24 07:27:20;;;;;;;40.53;8.80;;;;;;;8.80;100.00;100983.31;5338976;27;20024;-86
2022/12/24 07:29:52;;;;;;;45.92;7.70;;;;;;;8.83;100.00;100993.72;5340291;27;20022;-86
2022/12/24 07:32:23;;;;;;;40.63;8.38;;;;;;;8.77;100.00;100991.59;5334982;27;20027;-85
2022/12/24 07:34:54;;;;;;;51.88;9.98;;;;;;;8.74;100.00;100990.00;5336282;27;20023;-85
2022/12/24 07:37:26;;;;;;;38.55;7.82;;;;;;;8.76;100.00;100993.38;5339432;27;20399;-86
2022/12/24 07:39:57;;;;;;;47.97;9.15;;;;;;;8.77;100.00;101005.72;5343663;27;20077;-86
2022/12/24 07:42:28;;;;;;;45.03;8.60;;;;;;;8.82;100.00;101008.00;5334980;27;20041;-87
2022/12/24 07:45:00;;;;;;;41.22;8.90;;;;;;;8.75;100.00;101010.31;5334310;27;20032;-87
2022/12/24 07:47:31;;;;;;;41.83;9.07;;;;;;;8.67;100.00;101012.75;5339432;27;20122;-86
2022/12/24 07:50:04;;;;;;;43.65;9.27;;;;;;;8.73;100.00;101025.56;5328225;27;20089;-86
2022/12/24 07:52:35;;;;;;;37.35;8.00;;;;;;;8.72;100.00;101020.38;5326900;27;20017;-86
2022/12/24 07:55:07;;;;;;;38.92;8.25;;;;;;;8.69;100.00;101024.94;5333531;27;20411;-86
2022/12/24 07:57:38;;;;;;;35.08;8.60;;;;;;;8.77;100.00;101039.47;5344286;28;20038;-87
2022/12/24 08:00:10;;;;;;;37.53;7.63;;;;;;;8.76;100.00;101037.75;5337673;28;20822;-86
2022/12/24 08:02:41;;;;;;;43.05;9.25;;;;;;;8.93;100.00;101049.69;5337572;27;20024;-86
2022/12/24 08:05:12;;;;;;;35.67;8.45;;;;;;;9.00;100.00;101051.69;5329996;27;20024;-86
2022/12/24 08:07:44;;;;;;;42.88;8.55;;;;;;;9.07;100.00;101054.69;5333601;27;20111;-84
2022/12/24 08:10:18;;;;;;;30.52;6.70;;;;;;;9.10;100.00;101067.75;5333239;27;20522;-85
2022/12/24 08:12:49;;;;;;;37.83;7.18;;;;;;;9.02;100.00;101070.19;5337245;28;20051;-85
2022/12/24 08:15:21;;;;;;;38.17;9.00;;;;;;;9.04;100.00;101063.75;5332811;28;20032;-85
2022/12/24 08:17:52;;;;;;;32.50;8.27;;;;;;;9.02;100.00;101072.84;5328081;28;20031;-85
2022/12/24 08:20:24;;;;;;;28.92;5.85;;;;;;;9.04;100.00;101076.22;5325998;27;20038;-85
2022/12/24 08:22:55;;;;;;;41.20;8.20;;;;;;;8.98;100.00;101071.44;5323607;27;20481;-86
2022/12/24 08:25:26;;;;;;;37.10;8.90;;;;;;;8.99;100.00;101078.41;5326603;28;20504;-86
2022/12/24 08:27:58;;;;;;;40.38;7.47;;;;;;;9.12;100.00;101095.06;5340900;27;20131;-86
2022/12/24 08:30:29;;;;;;;31.23;6.35;;;;;;;9.12;100.00;101088.91;5312531;28;20035;-85
2022/12/24 08:33:03;;;;;;;31.10;6.78;;;;;;;9.15;100.00;101099.28;5341084;27;20408;-85
2022/12/24 08:35:34;;;;;;;36.85;7.80;;;;;;;9.21;100.00;101101.47;5327948;28;20028;-85
2022/12/24 08:38:06;;;;;;;33.80;7.05;;;;;;;9.19;100.00;101096.25;5326605;27;20389;-85
2022/12/24 08:40:37;;;;;;;31.85;6.97;;;;;;;9.31;100.00;101090.88;5326493;27;20027;-86
2022/12/24 08:43:08;;;;;;;32.42;7.82;;;;;;;9.31;100.00;101105.03;5330733;28;20088;-85
2022/12/24 08:45:40;;;;;;;32.20;7.03;;;;;;;9.33;100.00;101095.09;5329539;28;20480;-85
2022/12/24 08:48:14;;;;;;;35.28;7.70;;;;;;;9.31;100.00;101094.41;5330660;27;21131;-83
2022/12/24 08:50:46;;;;;;;34.90;8.77;;;;;;;9.33;100.00;101110.25;5336453;27;20376;-85
2022/12/24 08:53:17;;;;;;;42.53;8.57;;;;;;;9.30;100.00;101107.84;5329047;27;20034;-85
2022/12/24 08:55:48;;;;;;;38.90;7.93;;;;;;;9.23;100.00;101110.16;5329232;27;20027;-85
2022/12/24 08:58:20;;;;;;;34.65;8.18;;;;;;;9.22;100.00;101116.44;5334384;27;20028;-86
2022/12/24 09:00:55;;;;;;;38.80;8.02;;;;;;;9.30;100.00;101124.63;5354248;27;20414;-86
2022/12/24 09:03:28;;;;;;;36.70;8.23;;;;;;;9.32;100.00;101116.53;5321686;27;20055;-85
2022/12/24 09:06:03;;;;;;;35.80;7.70;;;;;;;9.28;100.00;101118.59;5329883;27;20028;-85
2022/12/24 09:08:34;;;;;;;37.45;8.35;;;;;;;9.31;100.00;101134.34;5349682;27;20048;-85
2022/12/24 09:11:15;;;;;;;36.92;8.15;;;;;;;9.35;100.00;101138.41;5362398;27;20019;-84
2022/12/24 09:13:46;;;;;;;42.20;10.25;;;;;;;9.30;100.00;101131.78;5341520;27;20122;-86
2022/12/24 09:16:18;;;;;;;36.90;8.85;;;;;;;9.34;100.00;101144.69;5320068;27;20079;-85
2022/12/24 09:18:49;;;;;;;40.75;7.97;;;;;;;9.36;100.00;101148.09;5318901;27;20025;-87
2022/12/24 09:21:20;;;;;;;34.15;8.30;;;;;;;9.41;100.00;101153.03;5327475;27;20039;-86
2022/12/24 09:23:52;;;;;;;47.00;8.60;;;;;;;9.51;100.00;101167.28;5324903;27;20024;-85
2022/12/24 09:26:26;;;;;;;36.35;9.07;;;;;;;9.60;100.00;101173.66;5328572;27;20024;-85
2022/12/24 09:29:16;;;;;;;40.00;9.23;;;;;;;9.71;100.00;101173.63;5323739;27;20485;-86
2022/12/24 09:31:48;;;;;;;35.40;7.43;;;;;;;10.01;100.00;101163.97;5328303;28;20020;-87
2022/12/24 09:34:22;;;;;;;38.78;8.13;;;;;;;10.14;100.00;101177.94;5334745;27;20392;-86
2022/12/24 09:36:53;;;;;;;34.28;8.13;;;;;;;10.21;100.00;101179.13;5336580;27;20540;-86
2022/12/24 09:39:28;;;;;;;31.75;7.85;;;;;;;10.32;100.00;101188.03;5346579;27;20061;-87
2022/12/24 09:42:27;;;;;;;32.40;7.72;;;;;;;10.37;100.00;101180.50;5335806;27;20451;-85
2022/12/24 09:45:21;;;;;;;33.08;8.00;;;;;;;10.33;100.00;101171.91;5344845;27;20500;-85
2022/12/24 09:47:58;;;;;;;32.95;6.60;;;;;;;10.34;100.00;101189.63;5334151;27;20036;-86
2022/12/24 09:50:33;;;;;;;40.83;8.93;;;;;;;10.15;100.00;101182.31;5331992;27;20519;-86
2022/12/24 09:53:16;;;;;;;43.70;9.68;;;;;;;10.14;100.00;101195.78;5338254;27;20074;-86
2022/12/24 09:55:52;;;;;;;33.47;8.18;;;;;;;10.08;100.00;101199.81;5328710;27;20024;-86
2022/12/24 09:58:48;;;;;;;42.72;8.88;;;;;;;10.03;100.00;101199.34;5334958;27;20016;-86
2022/12/24 10:01:19;;;;;;;38.30;8.10;;;;;;;9.92;100.00;101202.06;5315997;27;20544;-86
2022/12/24 10:03:51;;;;;;;38.03;8.38;;;;;;;9.94;100.00;101216.09;5327859;27;20031;-86
2022/12/24 10:06:44;;;;;;;39.53;8.55;;;;;;;10.04;100.00;101203.69;5323997;27;20039;-86
2022/12/24 10:09:51;;;;;;;37.45;8.15;;;;;;;10.05;100.00;101210.72;5340616;27;20404;-86
2022/12/24 10:13:00;;;;;;;29.20;9.10;;;;;;;10.08;100.00;101215.81;5330215;27;20507;-86
2022/12/24 10:16:13;;;;;;;36.85;8.75;;;;;;;10.16;100.00;101220.47;5339553;27;20060;-86
2022/12/24 10:19:13;;;;;;;37.15;8.68;;;;;;;10.06;100.00;101214.22;5328091;27;20113;-86
2022/12/24 10:22:05;;;;;;;37.47;8.60;;;;;;;10.14;100.00;101201.09;5285486;28;20129;-87
2022/12/24 10:24:46;;;;;;;29.45;7.80;;;;;;;10.07;100.00;101202.59;5322199;27;20028;-86
2022/12/24 10:27:20;;;;;;;43.35;9.75;;;;;;;10.11;100.00;101212.03;5330960;28;20077;-85
2022/12/24 10:30:00;;;;;;;33.67;8.43;;;;;;;10.21;100.00;101208.44;5333519;28;20011;-87
2022/12/24 10:32:34;;;;;;;29.33;7.95;;;;;;;10.34;100.00;101207.41;5325858;28;20048;-85
2022/12/24 10:35:14;;;;;;;30.35;7.50;;;;;;;10.63;100.00;101212.06;5328403;27;20531;-84
2022/12/24 10:37:51;;;;;;;37.83;8.50;;;;;;;10.66;100.00;101215.31;5344960;27;20055;-85
2022/12/24 10:40:47;;;;;;;34.92;9.75;;;;;;;10.68;100.00;101223.19;5329971;27;20027;-86
2022/12/24 10:43:21;;;;;;;32.28;7.80;;;;;;;10.59;100.00;101225.66;5322743;27;20055;-84
2022/12/24 10:46:02;;;;;;;34.10;8.18;;;;;;;10.67;100.00;101219.66;5319605;27;20846;-85
2022/12/24 10:48:41;;;;;;;31.95;8.00;;;;;;;10.68;100.00;101223.19;5339682;27;20027;-84
2022/12/24 10:51:40;;;;;;;28.05;7.07;;;;;;;10.64;100.00;101219.94;5334774;27;20380;-84
2022/12/24 10:54:19;;;;;;;32.22;7.82;;;;;;;10.65;100.00;101212.78;5289926;27;20054;-84
2022/12/24 10:56:56;;;;;;;35.25;7.93;;;;;;;10.67;100.00;101224.16;5334785;27;20103;-84
2022/12/24 10:59:41;;;;;;;33.22;7.88;;;;;;;10.73;100.00;101223.63;5336090;27;20055;-84
2022/12/24 11:02:32;;;;;;;33.80;7.82;;;;;;;10.78;100.00;101232.03;5330351;27;20022;-83
2022/12/24 11:05:25;;;;;;;31.73;7.13;;;;;;;10.83;100.00;101212.97;5338652;27;20028;-85
2022/12/24 11:08:01;;;;;;;36.42;7.95;;;;;;;10.86;100.00;101228.72;5340804;27;20531;-84
2022/12/24 11:10:38;;;;;;;34.03;8.73;;;;;;;10.83;100.00;101229.81;5335626;27;20081;-84
2022/12/24 11:13:39;;;;;;;31.23;7.60;;;;;;;10.85;100.00;101225.22;5339649;27;20464;-85
2022/12/24 11:16:34;;;;;;;32.85;7.82;;;;;;;10.92;100.00;101226.38;5331784;27;20437;-84
2022/12/24 11:19:17;;;;;;;36.53;8.52;;;;;;;10.90;100.00;101222.97;5334237;27;20709;-85
2022/12/24 11:21:57;;;;;;;35.00;8.15;;;;;;;11.09;100.00;101230.19;5325475;27;20143;-85
2022/12/24 11:24:35;;;;;;;36.20;8.10;;;;;;;11.18;100.00;101228.53;5331554;27;20553;-85
2022/12/24 11:27:31;;;;;;;29.55;6.63;;;;;;;11.31;100.00;101234.47;5324500;27;20043;-84
2022/12/24 11:30:14;;;;;;;26.80;8.05;;;;;;;11.34;100.00;101242.22;5328524;27;20032;-84
2022/12/24 11:33:10;;;;;;;28.42;7.95;;;;;;;11.45;100.00;101237.75;5333769;27;20039;-85
2022/12/24 11:35:48;;;;;;;29.67;7.68;;;;;;;11.46;100.00;101234.06;5323701;27;20032;-85
2022/12/24 11:38:22;;;;;;;27.25;7.78;;;;;;;11.48;100.00;101235.63;5329411;27;20492;-84
2022/12/24 11:41:10;;;;;;;30.17;8.55;;;;;;;11.73;100.00;101228.88;5318375;27;20054;-85
2022/12/24 11:43:47;;;;;;;27.38;7.57;;;;;;;11.68;100.00;101238.31;5324277;27;20059;-85
2022/12/24 11:46:37;;;;;;;27.75;7.72;;;;;;;11.65;100.00;101244.78;5325827;27;20102;-85
2022/12/24 11:49:11;;;;;;;27.98;7.63;;;;;;;11.42;100.00;101240.69;5336310;27;20032;-83
2022/12/24 11:52:15;;;;;;;33.78;8.63;;;;;;;11.60;100.00;101259.53;5333385;27;20456;-84
2022/12/24 11:55:11;;;;;;;29.00;7.57;;;;;;;11.43;100.00;101248.56;5323245;27;20028;-85
2022/12/24 11:58:09;;;;;;;37.97;8.32;;;;;;;11.64;100.00;101252.91;5325574;27;20016;-85
2022/12/24 12:00:44;;;;;;;28.38;8.52;;;;;;;11.70;100.00;101245.19;5312936;27;20035;-85
2022/12/24 12:03:31;;;;;;;28.40;8.23;;;;;;;11.75;100.00;101238.59;5326380;27;20020;-85
2022/12/24 12:06:22;;;;;;;26.70;8.18;;;;;;;11.70;100.00;101241.69;5323091;27;20124;-87
2022/12/24 12:09:03;;;;;;;26.77;8.35;;;;;;;11.54;100.00;101245.75;5341272;27;20039;-85